Time;durP1;ratioP1;P1;durP2;ratioP2;P2;SDS_P1;SDS_P2;PMS_P1;PMS_P2;Temp;Humidity;BMP_temperature;BMP_pressure;BME280_temperature;BME280_humidity;BME280_pressure;Samples;Min_cycle;Max_cycle;Signal;HPM_P1;HPM_P2
2023/01/16 00:02:00;;;;;;;7.55;1.60;;;2.20;94.30;;;;;;5014127;28;20018;-67
2023/01/16 00:04:26;;;;;;;7.90;1.80;;;2.20;94.30;;;;;;5016449;28;20038;-68
2023/01/16 00:06:52;;;;;;;7.43;2.10;;;2.10;94.40;;;;;;5014730;28;20018;-67
2023/01/16 00:09:18;;;;;;;6.03;1.85;;;2.00;94.90;;;;;;5013590;28;20367;-67
2023/01/16 00:11:44;;;;;;;6.40;1.50;;;2.20;94.50;;;;;;5014462;28;20034;-67
2023/01/16 00:14:10;;;;;;;4.85;1.70;;;2.10;94.60;;;;;;5022124;28;20024;-66
2023/01/16 00:16:35;;;;;;;4.75;1.48;;;2.10;94.60;;;;;;5014957;28;20370;-67
2023/01/16 00:19:01;;;;;;;5.70;1.52;;;2.10;94.60;;;;;;5018774;28;20517;-67
2023/01/16 00:21:26;;;;;;;5.47;1.70;;;2.30;94.30;;;;;;5011475;28;20037;-66
2023/01/16 00:23:59;;;;;;;4.75;1.85;;;2.40;93.90;;;;;;5021824;28;20029;-67
2023/01/16 00:26:26;;;;;;;10.60;1.60;;;2.40;93.90;;;;;;5022418;28;20029;-67
2023/01/16 00:28:51;;;;;;;4.80;1.35;;;2.30;94.10;;;;;;5023548;28;20084;-67
2023/01/16 00:31:18;;;;;;;9.13;1.70;;;2.40;93.80;;;;;;5013531;28;20041;-67
2023/01/16 00:33:43;;;;;;;6.07;1.50;;;2.30;93.80;;;;;;5013653;28;20032;-67
2023/01/16 00:36:10;;;;;;;4.88;1.40;;;2.30;94.10;;;;;;5014635;28;20105;-68
2023/01/16 00:38:37;;;;;;;4.30;1.40;;;2.20;94.50;;;;;;5012847;28;20402;-67
2023/01/16 00:41:05;;;;;;;6.93;2.05;;;2.10;94.90;;;;;;5014198;28;20029;-68
2023/01/16 00:43:31;;;;;;;5.03;1.50;;;2.00;95.20;;;;;;5012860;28;20362;-68
2023/01/16 00:45:57;;;;;;;4.47;1.60;;;2.10;95.10;;;;;;5008422;28;20334;-67
2023/01/16 00:48:23;;;;;;;6.85;1.60;;;2.10;95.00;;;;;;5011119;28;20025;-67
2023/01/16 00:50:49;;;;;;;4.32;1.50;;;2.10;95.30;;;;;;5012276;28;20083;-67
2023/01/16 00:53:15;;;;;;;5.18;1.70;;;2.00;95.40;;;;;;5012567;28;20029;-67
2023/01/16 00:55:41;;;;;;;4.45;1.50;;;2.00;95.40;;;;;;5011561;28;20076;-67
2023/01/16 00:58:08;;;;;;;7.43;2.03;;;2.10;95.40;;;;;;5014591;28;20026;-68
2023/01/16 01:00:35;;;;;;;7.82;1.60;;;2.20;95.20;;;;;;4993464;28;20030;-67
2023/01/16 01:03:01;;;;;;;5.57;1.40;;;2.20;94.80;;;;;;5011236;28;20058;-67
2023/01/16 01:05:27;;;;;;;2.67;1.30;;;2.20;95.00;;;;;;5014210;28;20064;-67
2023/01/16 01:07:52;;;;;;;5.07;2.00;;;2.20;94.90;;;;;;5014554;28;20049;-68
2023/01/16 01:10:18;;;;;;;5.88;1.48;;;2.30;94.90;;;;;;5012399;28;20092;-67
2023/01/16 01:12:44;;;;;;;8.98;1.90;;;2.30;95.10;;;;;;5016364;28;20041;-66
2023/01/16 01:15:09;;;;;;;7.80;2.15;;;2.40;94.80;;;;;;5009716;28;20022;-67
2023/01/16 01:17:35;;;;;;;7.03;2.00;;;2.40;94.80;;;;;;5018476;28;20476;-67
2023/01/16 01:20:01;;;;;;;5.05;1.65;;;2.40;94.80;;;;;;4996231;28;20030;-66
2023/01/16 01:22:26;;;;;;;5.10;1.50;;;2.50;94.70;;;;;;5012125;28;20351;-67
2023/01/16 01:24:52;;;;;;;5.90;1.60;;;2.50;94.50;;;;;;5011446;28;20095;-67
2023/01/16 01:27:18;;;;;;;7.55;1.50;;;2.50;94.40;;;;;;5013278;28;20066;-67
2023/01/16 01:29:43;;;;;;;9.82;3.03;;;2.50;94.20;;;;;;5018281;28;20045;-68
2023/01/16 01:32:09;;;;;;;4.93;1.40;;;2.40;94.60;;;;;;5019127;28;20030;-67
2023/01/16 01:34:38;;;;;;;4.25;1.50;;;2.30;95.10;;;;;;5023000;28;20030;-67
2023/01/16 01:37:05;;;;;;;7.88;2.15;;;2.20;95.50;;;;;;5014481;28;20362;-67
2023/01/16 01:39:31;;;;;;;7.20;1.80;;;2.10;95.70;;;;;;5014869;28;20022;-66
2023/01/16 01:44:54;;;;;;;4.93;1.52;;;2.00;96.50;;;;;;5015027;28;20111;-67
2023/01/16 01:47:44;;;;;;;5.75;1.60;;;1.90;96.70;;;;;;5015709;28;20026;-67
2023/01/16 01:50:31;;;;;;;6.15;1.63;;;1.90;96.90;;;;;;5015236;28;20157;-67
2023/01/16 01:53:02;;;;;;;5.53;1.60;;;2.00;96.50;;;;;;5010468;28;20018;-67
2023/01/16 01:55:28;;;;;;;8.73;2.28;;;1.90;96.50;;;;;;5011410;28;20018;-67
2023/01/16 01:57:58;;;;;;;4.93;1.50;;;2.00;96.30;;;;;;5001476;28;20100;-67
2023/01/16 02:00:25;;;;;;;4.85;1.52;;;2.10;96.00;;;;;;5010520;28;20374;-67
2023/01/16 02:02:58;;;;;;;5.80;1.60;;;2.20;95.60;;;;;;5010928;28;20030;-67
2023/01/16 02:05:28;;;;;;;6.68;1.55;;;2.20;95.40;;;;;;5011706;28;20014;-67
2023/01/16 02:07:54;;;;;;;5.20;1.60;;;2.30;95.00;;;;;;5010386;28;20034;-66
2023/01/16 02:10:36;;;;;;;3.47;1.63;;;2.30;95.30;;;;;;5003006;28;20046;-67
2023/01/16 02:13:05;;;;;;;4.82;1.48;;;2.20;95.40;;;;;;5015513;28;20030;-67
2023/01/16 02:19:14;;;;;;;7.15;1.48;;;2.20;95.30;;;;;;5007585;28;20799;-66
2023/01/16 02:21:32;;;;;;;10.23;1.60;;;1.90;96.00;;;;;;5004440;28;20028;-68
2023/01/16 02:24:26;;;;;;;4.57;1.63;;;1.90;96.20;;;;;;5022642;28;20026;-67
2023/01/16 02:27:19;;;;;;;5.07;1.60;;;1.80;95.90;;;;;;5016870;28;20021;-66
2023/01/16 02:30:04;;;;;;;5.00;1.60;;;1.70;96.50;;;;;;4989397;28;20062;-67
2023/01/16 02:32:52;;;;;;;7.68;1.50;;;1.80;96.10;;;;;;5012701;28;20620;-67
2023/01/16 02:35:26;;;;;;;4.25;1.60;;;1.90;95.90;;;;;;5011007;28;20041;-65
2023/01/16 02:37:55;;;;;;;;;;;1.80;95.90;;;;;;5006101;28;20088;-67
2023/01/16 02:40:31;;;;;;;8.43;1.77;;;1.90;95.40;;;;;;5010265;28;20059;-66
2023/01/16 02:43:17;;;;;;;4.55;1.48;;;1.90;95.30;;;;;;4997918;28;20022;-67
2023/01/16 02:45:54;;;;;;;4.85;1.58;;;1.90;95.10;;;;;;5014829;28;20046;-67
2023/01/16 02:48:47;;;;;;;2.80;1.30;;;2.00;94.90;;;;;;5015459;28;20029;-66
2023/01/16 02:51:40;;;;;;;5.22;1.33;;;1.90;94.70;;;;;;5011634;28;20026;-67
2023/01/16 02:54:24;;;;;;;6.07;1.40;;;2.00;94.40;;;;;;5013605;28;20068;-67
2023/01/16 02:56:58;;;;;;;5.85;1.50;;;2.00;94.10;;;;;;5016510;28;20037;-67
2023/01/16 02:59:27;;;;;;;4.07;1.75;;;2.10;93.70;;;;;;4994747;28;20026;-67
2023/01/16 03:01:55;;;;;;;5.82;1.40;;;2.10;93.40;;;;;;5013227;28;20026;-67
2023/01/16 03:04:36;;;;;;;5.57;1.75;;;2.10;93.40;;;;;;5013671;28;20030;-67
2023/01/16 03:07:29;;;;;;;3.53;1.48;;;2.10;93.50;;;;;;5018581;28;20308;-67
2023/01/16 03:10:40;;;;;;;3.67;1.30;;;2.00;94.00;;;;;;5019955;28;20050;-67
2023/01/16 03:13:25;;;;;;;9.40;1.45;;;2.00;94.00;;;;;;5016568;28;20026;-67
2023/01/16 03:16:00;;;;;;;4.82;1.60;;;2.00;94.00;;;;;;5005608;28;20085;-67
2023/01/16 03:18:46;;;;;;;2.65;1.30;;;2.00;94.50;;;;;;5015331;28;20022;-67
2023/01/16 03:21:20;;;;;;;4.97;1.70;;;1.90;94.90;;;;;;5019642;28;20315;-68
2023/01/16 03:23:51;;;;;;;4.03;1.50;;;2.00;94.80;;;;;;5015835;28;20033;-67
2023/01/16 03:26:45;;;;;;;6.57;1.77;;;2.00;94.90;;;;;;5010520;28;20029;-67
2023/01/16 03:29:33;;;;;;;4.97;2.28;;;2.10;94.30;;;;;;5001738;28;20053;-67
2023/01/16 03:32:08;;;;;;;4.45;1.60;;;2.20;94.10;;;;;;5023612;28;20029;-67
2023/01/16 03:35:01;;;;;;;5.15;1.80;;;2.30;93.90;;;;;;5007349;28;20034;-67
2023/01/16 03:37:40;;;;;;;3.35;1.40;;;2.30;93.60;;;;;;5015328;28;20029;-67
2023/01/16 03:40:11;;;;;;;13.80;6.38;;;2.30;93.60;;;;;;5013170;28;20438;-67
2023/01/16 03:42:39;;;;;;;4.00;1.60;;;2.30;93.80;;;;;;5017793;28;20034;-67
2023/01/16 03:45:21;;;;;;;7.35;1.88;;;2.30;93.90;;;;;;4998973;28;20109;-67
2023/01/16 03:47:52;;;;;;;6.88;1.92;;;2.30;94.00;;;;;;5015837;28;20049;-67
2023/01/16 03:50:22;;;;;;;9.68;4.10;;;2.20;94.20;;;;;;4989966;28;20385;-67
2023/01/16 03:52:52;;;;;;;5.68;2.30;;;2.20;94.30;;;;;;5014350;28;20026;-66
2023/01/16 03:55:25;;;;;;;3.92;1.58;;;2.20;94.30;;;;;;5014378;28;20029;-67
2023/01/16 03:57:59;;;;;;;4.82;1.65;;;2.20;94.30;;;;;;5015824;28;20030;-66
2023/01/16 04:00:47;;;;;;;5.82;1.92;;;2.20;94.40;;;;;;5011705;28;20423;-67
2023/01/16 04:03:21;;;;;;;5.20;1.92;;;2.20;94.20;;;;;;5013511;28;20108;-67
2023/01/16 04:05:55;;;;;;;8.05;1.70;;;2.20;94.30;;;;;;5004500;28;20304;-67
2023/01/16 04:08:41;;;;;;;8.52;1.70;;;2.10;94.40;;;;;;5015211;28;20018;-66
2023/01/16 04:11:09;;;;;;;3.90;1.83;;;2.10;94.60;;;;;;5015616;28;20034;-66
2023/01/16 04:13:37;;;;;;;5.30;1.35;;;2.10;94.90;;;;;;5015356;28;20025;-66
2023/01/16 04:16:08;;;;;;;4.45;1.60;;;2.30;94.10;;;;;;5015426;28;20419;-66
2023/01/16 04:18:35;;;;;;;3.30;1.40;;;2.30;93.70;;;;;;5011298;28;20526;-67
2023/01/16 04:21:04;;;;;;;8.55;1.58;;;2.20;94.00;;;;;;4996025;28;20128;-66
2023/01/16 04:23:30;;;;;;;6.85;1.50;;;2.10;94.30;;;;;;5011247;28;20101;-66
2023/01/16 04:25:55;;;;;;;3.50;1.50;;;2.00;94.30;;;;;;5017596;28;20125;-65
2023/01/16 04:28:21;;;;;;;3.88;1.60;;;2.10;94.20;;;;;;4998351;28;20029;-67
2023/01/16 04:30:46;;;;;;;5.85;2.45;;;2.10;94.20;;;;;;5011523;28;20108;-66
2023/01/16 04:33:12;;;;;;;4.70;1.38;;;2.10;94.20;;;;;;5014040;28;20050;-67
2023/01/16 04:35:38;;;;;;;4.20;1.52;;;2.00;94.30;;;;;;5011833;28;20053;-66
2023/01/16 04:38:03;;;;;;;4.97;1.48;;;2.00;94.00;;;;;;4982439;28;20042;-66
2023/01/16 04:40:29;;;;;;;4.75;1.50;;;2.20;93.50;;;;;;5006907;28;20031;-66
2023/01/16 04:42:55;;;;;;;5.28;1.85;;;2.30;93.10;;;;;;5012004;28;20026;-65
2023/01/16 04:45:21;;;;;;;3.80;1.40;;;2.40;92.70;;;;;;5014207;28;20030;-66
2023/01/16 04:47:47;;;;;;;4.18;1.50;;;2.40;92.70;;;;;;5002970;28;20034;-67
2023/01/16 04:50:13;;;;;;;4.40;1.60;;;2.20;92.90;;;;;;5014059;28;20135;-66
2023/01/16 04:52:40;;;;;;;2.75;1.30;;;2.20;93.20;;;;;;4995040;28;20088;-67
2023/01/16 04:55:06;;;;;;;7.70;1.60;;;2.10;93.50;;;;;;5014012;28;20034;-67
2023/01/16 04:57:32;;;;;;;5.13;1.40;;;2.00;93.90;;;;;;5012952;28;20026;-67
2023/01/16 04:59:57;;;;;;;3.60;1.50;;;1.80;94.40;;;;;;4997118;28;20029;-67
2023/01/16 05:02:23;;;;;;;4.30;1.52;;;1.60;95.40;;;;;;5015121;28;20419;-67
2023/01/16 05:04:48;;;;;;;4.70;1.50;;;1.40;96.30;;;;;;4985109;28;21263;-66
2023/01/16 05:07:14;;;;;;;5.45;1.90;;;1.30;96.60;;;;;;5013650;28;20117;-66
2023/01/16 05:09:39;;;;;;;6.75;1.83;;;1.20;97.00;;;;;;5015156;28;20050;-66
2023/01/16 05:12:05;;;;;;;3.95;1.65;;;1.20;97.30;;;;;;5012494;28;20030;-66
2023/01/16 05:14:31;;;;;;;7.32;1.90;;;1.10;97.90;;;;;;5015198;28;20036;-68
2023/01/16 05:16:56;;;;;;;5.65;1.67;;;1.00;98.00;;;;;;5014266;28;20029;-68
2023/01/16 05:19:22;;;;;;;6.00;1.80;;;1.00;98.00;;;;;;5012948;28;20038;-68
2023/01/16 05:21:47;;;;;;;6.00;2.85;;;0.90;98.00;;;;;;5013149;28;20101;-67
2023/01/16 05:24:13;;;;;;;3.75;1.70;;;0.80;98.00;;;;;;5011510;28;20029;-68
2023/01/16 05:26:38;;;;;;;6.75;1.70;;;0.80;98.00;;;;;;5014069;28;20093;-67
2023/01/16 05:29:04;;;;;;;5.47;2.10;;;0.70;98.00;;;;;;5014111;28;20113;-67
2023/01/16 05:31:30;;;;;;;5.13;1.77;;;0.70;98.00;;;;;;5016075;28;20426;-67
2023/01/16 05:33:55;;;;;;;8.05;1.90;;;0.70;98.00;;;;;;5011947;28;20108;-67
2023/01/16 05:36:21;;;;;;;4.35;1.73;;;0.80;98.00;;;;;;5012333;28;20037;-67
2023/01/16 05:38:46;;;;;;;5.88;1.88;;;0.90;98.00;;;;;;5014734;28;20061;-66
2023/01/16 05:41:12;;;;;;;5.57;2.00;;;0.90;98.00;;;;;;5015666;28;20101;-68
2023/01/16 05:43:38;;;;;;;4.05;1.52;;;0.90;98.00;;;;;;5015088;28;20032;-66
2023/01/16 05:46:04;;;;;;;4.10;1.88;;;1.00;97.80;;;;;;5015820;28;20026;-67
2023/01/16 05:48:31;;;;;;;7.40;2.00;;;1.00;97.70;;;;;;5014415;28;20037;-67
2023/01/16 05:50:57;;;;;;;5.20;1.70;;;0.90;97.80;;;;;;5013795;28;20104;-67
2023/01/16 05:53:22;;;;;;;7.43;1.95;;;0.90;97.90;;;;;;5013810;28;20427;-66
2023/01/16 05:55:48;;;;;;;5.43;1.70;;;1.00;98.00;;;;;;5006746;28;20109;-66
2023/01/16 05:58:16;;;;;;;4.95;2.35;;;1.00;97.60;;;;;;5014060;28;20104;-67
2023/01/16 06:00:42;;;;;;;3.30;1.45;;;1.10;97.20;;;;;;5014338;28;20025;-66
2023/01/16 06:03:08;;;;;;;5.22;2.03;;;1.10;96.80;;;;;;5013235;28;20447;-66
2023/01/16 06:05:34;;;;;;;3.78;1.50;;;1.10;96.70;;;;;;5018341;28;20026;-66
2023/01/16 06:08:00;;;;;;;5.40;1.60;;;1.10;96.60;;;;;;5016409;28;20105;-66
2023/01/16 06:10:27;;;;;;;4.00;1.70;;;1.20;96.40;;;;;;5016557;28;20113;-66
2023/01/16 06:12:53;;;;;;;4.15;1.58;;;1.30;95.40;;;;;;5014074;28;20109;-66
2023/01/16 06:15:19;;;;;;;2.63;1.65;;;1.50;94.90;;;;;;5017010;28;20030;-66
2023/01/16 06:17:45;;;;;;;3.70;1.80;;;1.40;95.10;;;;;;5017404;28;20033;-66
2023/01/16 06:20:12;;;;;;;4.13;1.80;;;1.40;94.90;;;;;;5015892;28;20422;-66
2023/01/16 06:22:38;;;;;;;5.03;1.83;;;1.40;95.00;;;;;;5011255;28;20109;-66
2023/01/16 06:25:04;;;;;;;4.63;1.60;;;1.40;95.00;;;;;;5018157;28;20048;-66
2023/01/16 06:27:31;;;;;;;4.22;1.80;;;1.50;94.70;;;;;;5017815;28;20033;-66
2023/01/16 06:29:57;;;;;;;5.47;2.50;;;1.50;94.80;;;;;;5015467;28;20330;-66
2023/01/16 06:32:22;;;;;;;5.60;1.85;;;1.40;95.10;;;;;;5015491;28;20033;-66
2023/01/16 06:34:48;;;;;;;6.05;2.33;;;1.40;95.20;;;;;;5017996;28;20034;-66
2023/01/16 06:37:13;;;;;;;4.57;2.20;;;1.40;95.40;;;;;;5014346;28;20036;-66
2023/01/16 06:39:39;;;;;;;7.38;2.20;;;1.40;95.30;;;;;;5016246;28;20064;-67
2023/01/16 06:42:07;;;;;;;3.63;1.88;;;1.50;95.60;;;;;;5015746;28;20026;-67
2023/01/16 06:44:33;;;;;;;6.28;1.83;;;1.40;95.50;;;;;;5035370;28;20462;-66
2023/01/16 06:47:00;;;;;;;5.53;1.98;;;1.40;95.60;;;;;;5034671;28;20018;-66
2023/01/16 06:49:26;;;;;;;5.20;2.40;;;1.40;95.80;;;;;;5016872;28;20045;-66
2023/01/16 06:51:51;;;;;;;7.05;2.30;;;1.40;95.60;;;;;;5017508;28;20030;-66
2023/01/16 06:54:17;;;;;;;5.25;2.13;;;1.40;95.80;;;;;;5018477;28;20358;-67
2023/01/16 06:56:42;;;;;;;4.15;2.00;;;1.40;95.80;;;;;;5018351;28;20030;-66
2023/01/16 06:59:08;;;;;;;7.18;2.30;;;1.30;96.20;;;;;;5016254;28;20022;-66
2023/01/16 07:01:34;;;;;;;4.38;2.17;;;1.30;96.60;;;;;;5013141;28;20100;-66
2023/01/16 07:03:59;;;;;;;6.15;2.50;;;1.20;97.10;;;;;;5029831;28;20030;-67
2023/01/16 07:06:25;;;;;;;6.45;3.15;;;1.10;97.60;;;;;;5016784;28;20169;-66
2023/01/16 07:08:51;;;;;;;5.40;2.65;;;1.00;97.90;;;;;;5018179;28;20358;-66
2023/01/16 07:11:17;;;;;;;5.63;2.60;;;0.80;98.00;;;;;;5017924;28;20438;-66
2023/01/16 07:13:43;;;;;;;7.28;2.92;;;0.70;98.00;;;;;;5018227;28;20434;-66
2023/01/16 07:24:33;;;;;;;7.13;2.90;;;0.60;98.00;;;;;;5007604;28;20160;-66
2023/01/16 07:27:02;;;;;;;6.85;2.40;;;0.60;98.00;;;;;;5013500;28;20092;-66
2023/01/16 07:29:31;;;;;;;5.75;2.63;;;0.60;98.00;;;;;;5015550;28;20112;-66
2023/01/16 07:31:59;;;;;;;6.88;2.38;;;0.50;98.00;;;;;;4996129;28;20061;-66
2023/01/16 07:34:25;;;;;;;6.20;2.20;;;0.50;98.00;;;;;;5003417;28;20292;-66
2023/01/16 07:36:51;;;;;;;4.82;2.25;;;0.50;98.00;;;;;;5014505;28;20040;-66
2023/01/16 07:39:16;;;;;;;5.55;2.00;;;0.50;98.00;;;;;;5017598;28;20053;-66
2023/01/16 07:41:42;;;;;;;4.60;1.90;;;0.50;98.00;;;;;;5016447;28;20026;-66
2023/01/16 07:44:07;;;;;;;5.25;2.00;;;0.60;98.00;;;;;;5017453;28;20032;-66
2023/01/16 07:46:33;;;;;;;5.60;2.30;;;0.70;98.00;;;;;;4999251;28;20388;-66
2023/01/16 07:48:58;;;;;;;5.72;2.05;;;0.70;97.90;;;;;;5017446;28;20038;-66
2023/01/16 07:51:24;;;;;;;4.25;2.00;;;0.80;97.50;;;;;;5015494;28;20408;-66
2023/01/16 07:53:50;;;;;;;4.72;1.58;;;0.90;97.30;;;;;;5017393;28;20415;-66
2023/01/16 07:56:16;;;;;;;6.32;2.28;;;1.00;96.60;;;;;;5015268;28;20045;-65
2023/01/16 07:58:42;;;;;;;4.68;2.05;;;1.10;96.10;;;;;;5019834;28;20029;-66
2023/01/16 08:01:09;;;;;;;4.50;2.28;;;1.20;95.60;;;;;;5010820;28;20109;-65
2023/01/16 08:03:35;;;;;;;4.22;2.03;;;1.20;95.10;;;;;;4999318;28;20034;-65
2023/01/16 08:06:02;;;;;;;5.63;2.10;;;1.30;95.00;;;;;;5015010;28;20025;-65
2023/01/16 08:08:28;;;;;;;5.95;2.00;;;1.30;95.10;;;;;;5015801;28;20024;-66
2023/01/16 08:10:59;;;;;;;5.50;1.85;;;1.30;94.70;;;;;;5015971;28;20045;-67
2023/01/16 08:13:25;;;;;;;4.25;1.77;;;1.40;93.90;;;;;;5016850;28;20029;-67
2023/01/16 08:15:51;;;;;;;7.93;1.85;;;1.50;93.60;;;;;;5016052;28;20041;-67
2023/01/16 08:18:18;;;;;;;4.85;2.08;;;1.60;92.90;;;;;;5016989;28;20307;-66
2023/01/16 08:20:44;;;;;;;5.03;1.67;;;1.60;92.80;;;;;;4998165;28;20030;-66
2023/01/16 08:23:11;;;;;;;8.02;1.90;;;1.60;92.50;;;;;;5014762;28;20026;-66
2023/01/16 08:25:36;;;;;;;2.90;1.40;;;1.70;91.90;;;;;;5016740;28;20033;-66
2023/01/16 08:28:02;;;;;;;6.13;1.80;;;1.90;90.30;;;;;;5015360;28;20034;-66
2023/01/16 08:30:27;;;;;;;4.32;1.80;;;1.90;91.10;;;;;;5016038;28;20041;-66
2023/01/16 08:33:02;;;;;;;5.57;2.58;;;1.90;90.80;;;;;;5016606;28;20044;-66
2023/01/16 08:35:28;;;;;;;5.40;2.40;;;1.90;90.80;;;;;;5016004;28;20060;-66
2023/01/16 08:37:54;;;;;;;3.70;1.77;;;1.90;89.90;;;;;;5014313;28;20075;-66
2023/01/16 08:40:20;;;;;;;3.10;1.30;;;2.00;89.40;;;;;;5016612;28;20038;-66
2023/01/16 08:51:22;;;;;;;2.70;1.30;;;2.30;87.40;;;;;;5014591;28;20033;-65
2023/01/16 08:53:49;;;;;;;5.20;1.40;;;2.40;86.40;;;;;;5000642;28;20029;-66
2023/01/16 08:56:15;;;;;;;2.45;1.20;;;2.50;86.20;;;;;;5015409;28;20034;-66
2023/01/16 08:58:40;;;;;;;2.17;1.20;;;2.60;85.30;;;;;;5014226;28;20112;-66
2023/01/16 09:01:07;;;;;;;3.55;1.10;;;2.80;84.30;;;;;;5015669;28;20029;-66
2023/01/16 09:03:34;;;;;;;1.80;1.00;;;3.00;82.90;;;;;;4998104;28;20371;-66
2023/01/16 09:06:00;;;;;;;2.30;1.17;;;3.20;82.60;;;;;;5015678;28;20335;-66
2023/01/16 09:08:25;;;;;;;2.03;1.00;;;3.40;81.10;;;;;;5015125;28;20030;-66
2023/01/16 09:13:50;;;;;;;4.07;1.20;;;3.40;80.60;;;;;;4998009;28;20037;-66
2023/01/16 09:16:21;;;;;;;2.85;1.20;;;3.40;80.90;;;;;;5016268;28;20389;-66
2023/01/16 09:18:47;;;;;;;3.28;1.52;;;3.30;82.00;;;;;;5015120;28;20036;-66
2023/01/16 09:21:13;;;;;;;2.55;1.33;;;3.10;82.30;;;;;;5015130;28;20473;-67
2023/01/16 09:23:39;;;;;;;1.98;1.10;;;3.00;83.70;;;;;;4997039;28;20029;-66
2023/01/16 09:26:05;;;;;;;2.65;1.38;;;2.90;84.10;;;;;;5016140;28;20026;-66
2023/01/16 09:28:31;;;;;;;3.78;1.70;;;2.90;83.90;;;;;;5015129;28;20300;-66
2023/01/16 09:30:57;;;;;;;2.55;1.50;;;2.80;84.20;;;;;;5015230;28;20037;-66
2023/01/16 09:33:22;;;;;;;3.42;1.67;;;2.80;84.30;;;;;;5016068;28;20022;-67
2023/01/16 09:35:48;;;;;;;2.83;1.75;;;2.90;83.90;;;;;;5015042;28;20029;-66
2023/01/16 09:38:13;;;;;;;2.92;1.20;;;3.00;83.70;;;;;;4998346;28;20030;-66
2023/01/16 09:40:49;;;;;;;4.43;1.40;;;3.00;83.10;;;;;;5018854;28;20037;-66
2023/01/16 09:43:38;;;;;;;3.97;1.13;;;3.10;83.00;;;;;;5019932;28;20473;-66
2023/01/16 09:46:17;;;;;;;5.00;2.17;;;3.20;82.80;;;;;;5001571;28;20030;-67
2023/01/16 09:49:05;;;;;;;3.40;1.60;;;3.20;82.90;;;;;;5019234;28;20080;-67
2023/01/16 09:58:34;;;;;;;2.70;1.50;;;3.30;82.90;;;;;;5016876;28;20316;-66
2023/01/16 10:00:14;;;;;;;4.38;1.70;;;3.40;80.80;;;;;;5019567;28;19967;-67
2023/01/16 10:02:40;;;;;;;2.92;1.50;;;3.40;80.90;;;;;;5019281;28;20104;-67
2023/01/16 10:05:06;;;;;;;2.13;1.13;;;3.40;81.30;;;;;;5019722;28;20125;-67
2023/01/16 10:08:00;;;;;;;2.92;1.17;;;3.50;81.60;;;;;;5016367;28;20323;-67
2023/01/16 10:10:41;;;;;;;5.32;3.38;;;3.60;81.90;;;;;;5017465;28;20072;-67
2023/01/16 10:13:15;;;;;;;3.22;1.30;;;3.70;82.20;;;;;;4999881;28;20367;-67
2023/01/16 10:16:12;;;;;;;3.40;1.60;;;3.80;81.80;;;;;;5005517;28;20026;-67
2023/01/16 10:19:05;;;;;;;4.30;2.15;;;3.90;81.60;;;;;;5018489;28;20026;-67
2023/01/16 10:21:52;;;;;;;3.13;1.70;;;3.80;81.80;;;;;;5017135;28;20026;-67
2023/01/16 10:24:39;;;;;;;1.90;1.10;;;3.80;81.80;;;;;;5019060;28;20022;-67
2023/01/16 10:27:36;;;;;;;3.08;1.23;;;3.80;80.80;;;;;;5017293;28;20113;-67
2023/01/16 10:30:13;;;;;;;3.58;1.30;;;3.90;81.10;;;;;;4979272;28;20423;-68
2023/01/16 10:32:53;;;;;;;2.38;1.00;;;4.10;80.80;;;;;;5019061;28;20026;-68
2023/01/16 10:35:24;;;;;;;3.25;1.50;;;4.20;80.50;;;;;;5018164;28;20022;-67
2023/01/16 10:37:50;;;;;;;2.85;1.38;;;4.40;79.90;;;;;;5016006;28;20407;-68
2023/01/16 10:40:30;;;;;;;2.15;1.15;;;4.30;80.60;;;;;;5018233;28;20034;-68
2023/01/16 10:51:24;;;;;;;1.45;1.10;;;4.10;81.80;;;;;;5015568;28;20442;-67
2023/01/16 10:53:49;;;;;;;1.92;1.10;;;4.20;82.00;;;;;;5018849;28;20022;-67
2023/01/16 10:56:18;;;;;;;1.98;1.10;;;4.10;82.80;;;;;;5017766;28;20030;-67
2023/01/16 10:58:43;;;;;;;1.95;1.10;;;4.10;84.10;;;;;;5017775;28;20054;-66
2023/01/16 11:01:22;;;;;;;20.02;8.88;;;3.90;84.50;;;;;;5017565;28;20371;-67
2023/01/16 11:03:49;;;;;;;6.30;3.90;;;3.90;85.70;;;;;;5018371;28;20022;-69
2023/01/16 11:06:31;;;;;;;3.67;1.50;;;3.90;86.80;;;;;;5016343;28;20095;-68
2023/01/16 11:09:06;;;;;;;2.10;1.20;;;3.80;87.40;;;;;;5000836;28;20088;-68
2023/01/16 11:20:38;;;;;;;2.42;1.20;;;3.10;95.20;;;;;;5018201;28;20044;-68
2023/01/16 11:23:17;;;;;;;4.68;1.30;;;3.10;96.50;;;;;;4997360;28;20335;-67
2023/01/16 11:25:45;;;;;;;4.97;2.25;;;3.00;96.90;;;;;;4998673;28;20285;-69
2023/01/16 11:28:18;;;;;;;8.80;3.95;;;3.00;97.00;;;;;;4998380;28;20367;-69
2023/01/16 11:30:46;;;;;;;3.67;1.50;;;3.10;96.90;;;;;;5018996;28;20426;-68
2023/01/16 11:33:22;;;;;;;2.03;1.20;;;3.30;96.70;;;;;;5004674;28;20497;-69
2023/01/16 11:35:57;;;;;;;3.42;1.52;;;3.40;96.10;;;;;;5037625;28;20025;-69
2023/01/16 11:38:25;;;;;;;3.53;1.40;;;3.50;95.90;;;;;;5022765;28;20026;-68
2023/01/16 11:40:54;;;;;;;5.00;1.67;;;3.70;95.30;;;;;;5000382;28;20026;-68
2023/01/16 11:46:27;;;;;;;1.80;1.10;;;3.70;95.20;;;;;;5017827;28;20386;-68
2023/01/16 11:48:57;;;;;;;3.00;1.30;;;3.70;94.70;;;;;;5000468;28;20462;-68
2023/01/16 11:51:31;;;;;;;2.45;1.48;;;3.70;94.80;;;;;;5012717;28;20343;-68
2023/01/16 11:53:58;;;;;;;;;;;3.80;94.90;;;;;;5013179;28;20052;-68
2023/01/16 11:56:27;;;;;;;2.58;1.20;;;3.70;94.70;;;;;;5010731;28;19917;-68
2023/01/16 11:58:55;;;;;;;4.70;2.42;;;3.80;94.80;;;;;;5024345;28;20314;-69
2023/01/16 12:02:15;;;;;;;3.15;1.50;;;3.90;94.70;;;;;;5018806;28;20044;-68
2023/01/16 12:04:25;;;;;;;2.60;1.35;;;3.90;94.80;;;;;;5012459;28;20081;-68
2023/01/16 12:07:17;;;;;;;3.17;1.88;;;4.10;94.70;;;;;;4993324;28;20044;-68
2023/01/16 12:10:18;;;;;;;2.97;1.90;;;4.30;94.30;;;;;;5009393;28;20057;-68
2023/01/16 12:16:00;;;;;;;2.28;1.15;;;4.10;94.10;;;;;;5025399;28;20043;-70
2023/01/16 12:18:41;;;;;;;1.80;1.00;;;4.10;94.50;;;;;;5018420;28;20029;-69
2023/01/16 12:21:31;;;;;;;1.77;1.10;;;4.10;94.10;;;;;;5014923;28;20040;-69
2023/01/16 12:23:58;;;;;;;2.03;1.10;;;4.10;94.20;;;;;;5017074;28;20176;-69
2023/01/16 12:26:29;;;;;;;1.95;1.10;;;4.30;94.20;;;;;;5016030;28;20022;-69
2023/01/16 12:29:19;;;;;;;2.20;1.10;;;4.30;93.90;;;;;;4999561;28;20034;-69
2023/01/16 12:31:50;;;;;;;1.85;1.10;;;4.40;93.40;;;;;;5015944;28;20025;-69
2023/01/16 12:35:10;;;;;;;1.55;1.00;;;4.40;93.60;;;;;;5016841;28;20331;-69
2023/01/16 12:37:57;;;;;;;1.13;0.90;;;4.50;93.70;;;;;;4974538;28;20058;-69
2023/01/16 12:40:35;;;;;;;2.25;1.10;;;4.50;94.10;;;;;;5016004;28;20026;-69
2023/01/16 12:43:29;;;;;;;2.20;1.10;;;4.40;94.10;;;;;;4999797;28;20410;-69
2023/01/16 12:46:01;;;;;;;1.65;1.13;;;4.30;94.60;;;;;;5014857;28;20049;-69
2023/01/16 12:48:54;;;;;;;1.80;1.10;;;4.40;94.10;;;;;;5012917;28;20037;-70
2023/01/16 12:51:40;;;;;;;2.38;1.15;;;4.40;93.70;;;;;;5011203;28;20026;-69
2023/01/16 12:54:41;;;;;;;2.67;1.20;;;4.50;93.90;;;;;;4999048;28;20034;-69
2023/01/16 12:57:42;;;;;;;2.35;1.20;;;4.50;94.20;;;;;;4992547;28;20030;-70
2023/01/16 13:00:17;;;;;;;2.22;1.20;;;4.60;93.40;;;;;;5011766;28;20037;-69
2023/01/16 13:02:51;;;;;;;1.92;1.10;;;4.50;93.30;;;;;;5016035;28;20026;-69
2023/01/16 13:05:21;;;;;;;1.65;1.00;;;4.40;93.20;;;;;;5015463;28;20028;-70
2023/01/16 13:08:02;;;;;;;1.58;0.93;;;4.50;93.30;;;;;;5015164;28;20018;-70
2023/01/16 13:13:21;;;;;;;1.30;0.90;;;4.50;92.40;;;;;;4997746;28;20033;-69
2023/01/16 13:16:10;;;;;;;2.05;1.10;;;4.50;92.80;;;;;;5015315;28;20026;-69
2023/01/16 13:18:54;;;;;;;1.60;1.00;;;4.70;92.30;;;;;;4975036;28;20115;-69
2023/01/16 13:21:28;;;;;;;1.60;1.00;;;4.80;91.50;;;;;;4996340;28;20697;-70
2023/01/16 13:24:00;;;;;;;1.70;1.10;;;4.90;90.90;;;;;;4997654;28;20423;-69
2023/01/16 13:26:28;;;;;;;1.88;1.00;;;5.00;90.70;;;;;;5015024;28;20113;-70
2023/01/16 13:29:09;;;;;;;1.15;0.90;;;5.30;90.30;;;;;;5014134;28;20029;-69
2023/01/16 13:31:50;;;;;;;3.42;1.10;;;5.80;88.50;;;;;;5023055;28;20029;-70
2023/01/16 13:34:38;;;;;;;1.70;1.00;;;5.60;87.90;;;;;;5035619;28;20120;-69
2023/01/16 13:37:25;;;;;;;2.72;1.10;;;5.70;87.60;;;;;;5015536;28;20411;-69
2023/01/16 13:40:03;;;;;;;3.78;0.88;;;5.80;87.80;;;;;;5016012;28;20030;-69
2023/01/16 13:42:30;;;;;;;3.30;1.00;;;5.60;87.40;;;;;;4998407;28;20052;-70
2023/01/16 13:47:56;;;;;;;1.65;1.10;;;5.10;89.20;;;;;;5012967;28;20347;-68
2023/01/16 13:50:28;;;;;;;2.67;1.17;;;4.80;89.50;;;;;;5017937;28;20025;-69
2023/01/16 13:53:01;;;;;;;2.38;1.10;;;4.50;90.70;;;;;;5029741;28;20030;-68
2023/01/16 13:55:43;;;;;;;3.38;1.60;;;4.30;91.40;;;;;;5014807;28;20064;-68
2023/01/16 13:58:25;;;;;;;3.28;1.88;;;4.30;91.60;;;;;;5014984;28;20026;-70
2023/01/16 14:00:59;;;;;;;2.70;1.10;;;4.30;91.60;;;;;;5034635;28;20032;-69
2023/01/16 14:03:33;;;;;;;2.45;1.20;;;4.30;91.30;;;;;;5027930;28;20326;-70
2023/01/16 14:06:11;;;;;;;;;;;4.40;91.40;;;;;;5015664;28;20069;-69
2023/01/16 14:09:06;;;;;;;2.33;1.00;;;4.40;91.50;;;;;;5015854;28;19909;-70
2023/01/16 14:11:58;;;;;;;2.03;1.30;;;4.30;91.50;;;;;;5015501;28;20128;-70
2023/01/16 14:17:46;;;;;;;3.58;1.40;;;4.20;92.90;;;;;;4995995;28;20036;-70
2023/01/16 14:20:43;;;;;;;3.08;1.23;;;4.20;92.90;;;;;;4995823;28;20432;-70
2023/01/16 14:26:33;;;;;;;2.47;1.38;;;4.50;92.20;;;;;;4999145;28;20084;-69
2023/01/16 14:29:01;;;;;;;2.58;1.38;;;4.50;92.00;;;;;;5011380;28;20033;-70
2023/01/16 14:31:39;;;;;;;3.88;1.40;;;4.20;92.10;;;;;;5001826;28;20022;-70